Terminal Aerodrome Forecast
Issued by NWS

Current Version | Previous Version | Text Only | Print | Product List | Glossary On
Versions: 1 2 3 4 5 6 7 8 9 10 11 12 13 14 15 16 17 18 19 20 21 22
467
FTUS41 KPHI 221130
TAFPNE
TAF
KPNE 221130Z 2212/2312 30010KT P6SM SKC
     FM221400 30010G18KT P6SM SKC
     FM221800 29015G28KT P6SM SCT070
      TEMPO 2220/2222 -SHRA BKN070
     FM222300 30012KT P6SM SKC
     FM230400 33010G18KT P6SM SKC
     FM230900 32005KT P6SM SKC=

USA.gov is the U.S. government's official web portal to all federal, state and local government web resources and services.